sensor_id;sensor_type;location;lat;lon;timestamp;temperature;humidity
11559;DHT22;5835;42.930;25.178;2023-04-03T00:00:38;7.90;99.90
11559;DHT22;5835;42.930;25.178;2023-04-03T00:03:06;7.90;99.90
11559;DHT22;5835;42.930;25.178;2023-04-03T00:05:34;7.90;99.90
11559;DHT22;5835;42.930;25.178;2023-04-03T00:08:07;7.90;99.90
11559;DHT22;5835;42.930;25.178;2023-04-03T00:10:37;8.00;99.90
11559;DHT22;5835;42.930;25.178;2023-04-03T00:13:05;7.80;1.00
11559;DHT22;5835;42.930;25.178;2023-04-03T00:15:33;7.80;1.00
11559;DHT22;5835;42.930;25.178;2023-04-03T00:18:01;8.00;1.00
11559;DHT22;5835;42.930;25.178;2023-04-03T00:20:29;8.00;99.90
11559;DHT22;5835;42.930;25.178;2023-04-03T00:22:56;8.10;99.90
11559;DHT22;5835;42.930;25.178;2023-04-03T00:25:24;8.20;99.90
11559;DHT22;5835;42.930;25.178;2023-04-03T00:27:53;8.20;99.90
11559;DHT22;5835;42.930;25.178;2023-04-03T00:30:21;8.20;1.00
11559;DHT22;5835;42.930;25.178;2023-04-03T00:32:50;8.10;40.20
11559;DHT22;5835;42.930;25.178;2023-04-03T00:35:19;7.80;99.90
11559;DHT22;5835;42.930;25.178;2023-04-03T00:37:47;7.80;1.00
11559;DHT22;5835;42.930;25.178;2023-04-03T00:40:18;7.80;1.00
11559;DHT22;5835;42.930;25.178;2023-04-03T00:42:48;7.80;1.00
11559;DHT22;5835;42.930;25.178;2023-04-03T00:45:35;8.10;99.90
11559;DHT22;5835;42.930;25.178;2023-04-03T00:48:05;8.10;99.90
11559;DHT22;5835;42.930;25.178;2023-04-03T00:50:36;8.10;99.90
11559;DHT22;5835;42.930;25.178;2023-04-03T00:53:06;8.20;1.00
11559;DHT22;5835;42.930;25.178;2023-04-03T00:55:35;8.50;1.00
11559;DHT22;5835;42.930;25.178;2023-04-03T00:58:03;8.10;1.00
11559;DHT22;5835;42.930;25.178;2023-04-03T01:00:36;7.70;99.90
11559;DHT22;5835;42.930;25.178;2023-04-03T01:03:04;7.60;99.90
11559;DHT22;5835;42.930;25.178;2023-04-03T01:05:32;7.40;99.90
11559;DHT22;5835;42.930;25.178;2023-04-03T01:08:00;7.40;99.90
11559;DHT22;5835;42.930;25.178;2023-04-03T01:10:30;7.20;99.90
11559;DHT22;5835;42.930;25.178;2023-04-03T01:13:00;7.20;1.00
11559;DHT22;5835;42.930;25.178;2023-04-03T01:15:28;7.10;99.90
11559;DHT22;5835;42.930;25.178;2023-04-03T01:18:02;7.10;99.90
11559;DHT22;5835;42.930;25.178;2023-04-03T01:23:51;7.30;1.00
11559;DHT22;5835;42.930;25.178;2023-04-03T01:26:20;7.30;1.00
11559;DHT22;5835;42.930;25.178;2023-04-03T01:28:48;7.30;1.00
11559;DHT22;5835;42.930;25.178;2023-04-03T01:31:21;7.20;99.90
11559;DHT22;5835;42.930;25.178;2023-04-03T01:33:51;7.20;1.00
11559;DHT22;5835;42.930;25.178;2023-04-03T01:36:21;6.70;1.00
11559;DHT22;5835;42.930;25.178;2023-04-03T01:38:50;6.80;1.00
11559;DHT22;5835;42.930;25.178;2023-04-03T01:41:18;6.70;1.00
11559;DHT22;5835;42.930;25.178;2023-04-03T01:43:47;6.70;1.00
11559;DHT22;5835;42.930;25.178;2023-04-03T01:46:15;6.70;1.00
11559;DHT22;5835;42.930;25.178;2023-04-03T01:48:43;6.70;1.00
11559;DHT22;5835;42.930;25.178;2023-04-03T01:51:12;6.60;1.00
11559;DHT22;5835;42.930;25.178;2023-04-03T01:53:40;6.60;1.00
11559;DHT22;5835;42.930;25.178;2023-04-03T01:56:07;6.60;1.00
11559;DHT22;5835;42.930;25.178;2023-04-03T01:58:35;6.60;1.00
11559;DHT22;5835;42.930;25.178;2023-04-03T02:01:05;6.50;1.00
11559;DHT22;5835;42.930;25.178;2023-04-03T02:03:33;6.50;1.00
11559;DHT22;5835;42.930;25.178;2023-04-03T02:06:01;6.50;1.00
11559;DHT22;5835;42.930;25.178;2023-04-03T02:08:30;6.40;1.00
11559;DHT22;5835;42.930;25.178;2023-04-03T02:10:57;6.40;1.00
11559;DHT22;5835;42.930;25.178;2023-04-03T02:13:25;6.40;1.00
11559;DHT22;5835;42.930;25.178;2023-04-03T02:15:52;6.40;1.00
11559;DHT22;5835;42.930;25.178;2023-04-03T02:18:20;6.40;1.00
11559;DHT22;5835;42.930;25.178;2023-04-03T02:20:47;6.40;2.70
11559;DHT22;5835;42.930;25.178;2023-04-03T02:23:15;6.40;23.50
11559;DHT22;5835;42.930;25.178;2023-04-03T02:25:44;6.30;28.10
11559;DHT22;5835;42.930;25.178;2023-04-03T02:28:11;6.40;12.70
11559;DHT22;5835;42.930;25.178;2023-04-03T02:30:39;6.40;29.00
11559;DHT22;5835;42.930;25.178;2023-04-03T02:33:07;6.30;51.60
11559;DHT22;5835;42.930;25.178;2023-04-03T02:35:34;6.40;35.50
11559;DHT22;5835;42.930;25.178;2023-04-03T02:38:02;6.40;27.60
11559;DHT22;5835;42.930;25.178;2023-04-03T02:40:30;6.40;1.00
11559;DHT22;5835;42.930;25.178;2023-04-03T02:42:59;6.40;11.90
11559;DHT22;5835;42.930;25.178;2023-04-03T02:45:26;6.40;36.30
11559;DHT22;5835;42.930;25.178;2023-04-03T02:47:54;6.50;1.00
11559;DHT22;5835;42.930;25.178;2023-04-03T02:50:21;6.50;1.00
11559;DHT22;5835;42.930;25.178;2023-04-03T02:52:49;6.50;1.00
11559;DHT22;5835;42.930;25.178;2023-04-03T02:55:17;6.60;1.00
11559;DHT22;5835;42.930;25.178;2023-04-03T02:57:46;6.70;1.00
11559;DHT22;5835;42.930;25.178;2023-04-03T03:00:15;6.70;1.00
11559;DHT22;5835;42.930;25.178;2023-04-03T03:02:43;6.60;1.00
11559;DHT22;5835;42.930;25.178;2023-04-03T03:05:11;6.50;1.00
11559;DHT22;5835;42.930;25.178;2023-04-03T03:07:38;6.40;1.00
11559;DHT22;5835;42.930;25.178;2023-04-03T03:10:07;6.20;1.00
11559;DHT22;5835;42.930;25.178;2023-04-03T03:12:37;6.20;1.00
11559;DHT22;5835;42.930;25.178;2023-04-03T03:15:07;6.10;1.00
11559;DHT22;5835;42.930;25.178;2023-04-03T03:17:36;6.00;1.00
11559;DHT22;5835;42.930;25.178;2023-04-03T03:20:04;5.90;1.00
11559;DHT22;5835;42.930;25.178;2023-04-03T03:22:34;5.90;23.60
11559;DHT22;5835;42.930;25.178;2023-04-03T03:25:02;5.80;18.50
11559;DHT22;5835;42.930;25.178;2023-04-03T03:27:30;5.80;50.00
11559;DHT22;5835;42.930;25.178;2023-04-03T03:29:57;5.80;29.40
11559;DHT22;5835;42.930;25.178;2023-04-03T03:32:25;5.70;47.50
11559;DHT22;5835;42.930;25.178;2023-04-03T03:34:54;5.70;55.40
11559;DHT22;5835;42.930;25.178;2023-04-03T03:37:21;5.70;53.20
11559;DHT22;5835;42.930;25.178;2023-04-03T03:39:48;5.70;72.00
11559;DHT22;5835;42.930;25.178;2023-04-03T03:42:16;5.70;68.30
11559;DHT22;5835;42.930;25.178;2023-04-03T03:44:43;5.70;81.50
11559;DHT22;5835;42.930;25.178;2023-04-03T03:47:14;5.80;55.20
11559;DHT22;5835;42.930;25.178;2023-04-03T03:49:41;5.80;47.40
11559;DHT22;5835;42.930;25.178;2023-04-03T03:52:10;5.80;56.90
11559;DHT22;5835;42.930;25.178;2023-04-03T03:54:38;5.70;66.00
11559;DHT22;5835;42.930;25.178;2023-04-03T03:57:06;5.80;64.60
11559;DHT22;5835;42.930;25.178;2023-04-03T03:59:33;5.80;61.00
11559;DHT22;5835;42.930;25.178;2023-04-03T04:02:01;5.80;39.80
11559;DHT22;5835;42.930;25.178;2023-04-03T04:04:28;5.70;52.30
11559;DHT22;5835;42.930;25.178;2023-04-03T04:06:56;5.70;68.80
11559;DHT22;5835;42.930;25.178;2023-04-03T04:09:25;5.70;66.40
11559;DHT22;5835;42.930;25.178;2023-04-03T04:11:52;5.70;51.60
11559;DHT22;5835;42.930;25.178;2023-04-03T04:14:20;5.80;26.80
11559;DHT22;5835;42.930;25.178;2023-04-03T04:16:47;5.80;40.30
11559;DHT22;5835;42.930;25.178;2023-04-03T04:19:15;5.80;32.10
11559;DHT22;5835;42.930;25.178;2023-04-03T04:21:43;5.80;36.00
11559;DHT22;5835;42.930;25.178;2023-04-03T04:24:11;5.80;31.10
11559;DHT22;5835;42.930;25.178;2023-04-03T04:26:40;5.90;52.10
11559;DHT22;5835;42.930;25.178;2023-04-03T04:29:09;5.80;42.90
11559;DHT22;5835;42.930;25.178;2023-04-03T04:31:36;5.80;50.50
11559;DHT22;5835;42.930;25.178;2023-04-03T04:34:04;5.70;51.20
11559;DHT22;5835;42.930;25.178;2023-04-03T04:36:31;5.70;49.50
11559;DHT22;5835;42.930;25.178;2023-04-03T04:39:04;5.80;36.10
11559;DHT22;5835;42.930;25.178;2023-04-03T04:41:32;5.80;31.70
11559;DHT22;5835;42.930;25.178;2023-04-03T04:44:01;5.80;59.10
11559;DHT22;5835;42.930;25.178;2023-04-03T04:46:29;5.90;59.60
11559;DHT22;5835;42.930;25.178;2023-04-03T04:48:56;5.90;51.70
11559;DHT22;5835;42.930;25.178;2023-04-03T04:51:25;6.00;56.50
11559;DHT22;5835;42.930;25.178;2023-04-03T04:53:53;6.20;52.30
11559;DHT22;5835;42.930;25.178;2023-04-03T04:56:20;6.30;40.40
11559;DHT22;5835;42.930;25.178;2023-04-03T04:58:47;6.40;8.50
11559;DHT22;5835;42.930;25.178;2023-04-03T05:01:16;6.50;1.00
11559;DHT22;5835;42.930;25.178;2023-04-03T05:03:44;6.60;1.00
11559;DHT22;5835;42.930;25.178;2023-04-03T05:06:13;6.80;1.00
11559;DHT22;5835;42.930;25.178;2023-04-03T05:08:40;6.70;1.00
11559;DHT22;5835;42.930;25.178;2023-04-03T05:11:08;6.70;1.00
11559;DHT22;5835;42.930;25.178;2023-04-03T05:13:35;6.70;1.00
11559;DHT22;5835;42.930;25.178;2023-04-03T05:16:05;6.70;1.00
11559;DHT22;5835;42.930;25.178;2023-04-03T05:18:34;6.80;1.00
11559;DHT22;5835;42.930;25.178;2023-04-03T05:21:02;6.80;1.00
11559;DHT22;5835;42.930;25.178;2023-04-03T05:23:30;7.00;1.00
11559;DHT22;5835;42.930;25.178;2023-04-03T05:25:57;7.20;1.00
11559;DHT22;5835;42.930;25.178;2023-04-03T05:28:25;7.40;1.00
11559;DHT22;5835;42.930;25.178;2023-04-03T05:30:53;7.40;1.00
11559;DHT22;5835;42.930;25.178;2023-04-03T05:33:22;7.50;1.00
11559;DHT22;5835;42.930;25.178;2023-04-03T05:35:56;7.60;1.00
11559;DHT22;5835;42.930;25.178;2023-04-03T05:38:26;7.80;1.00
11559;DHT22;5835;42.930;25.178;2023-04-03T05:40:54;7.90;1.00
11559;DHT22;5835;42.930;25.178;2023-04-03T05:43:22;8.00;1.00
11559;DHT22;5835;42.930;25.178;2023-04-03T05:45:52;8.10;1.00
11559;DHT22;5835;42.930;25.178;2023-04-03T05:48:20;8.30;1.00
11559;DHT22;5835;42.930;25.178;2023-04-03T05:50:48;8.40;1.00
11559;DHT22;5835;42.930;25.178;2023-04-03T05:53:20;8.50;1.00
11559;DHT22;5835;42.930;25.178;2023-04-03T05:55:48;8.50;1.00
11559;DHT22;5835;42.930;25.178;2023-04-03T05:58:16;8.40;1.00
11559;DHT22;5835;42.930;25.178;2023-04-03T06:00:44;8.40;1.00
11559;DHT22;5835;42.930;25.178;2023-04-03T06:03:11;8.20;1.00
11559;DHT22;5835;42.930;25.178;2023-04-03T06:05:39;8.30;1.00
11559;DHT22;5835;42.930;25.178;2023-04-03T06:08:07;8.50;1.00
11559;DHT22;5835;42.930;25.178;2023-04-03T06:10:37;8.70;1.00
11559;DHT22;5835;42.930;25.178;2023-04-03T06:13:06;9.00;1.00
11559;DHT22;5835;42.930;25.178;2023-04-03T06:15:34;9.20;1.00
11559;DHT22;5835;42.930;25.178;2023-04-03T06:18:01;9.50;99.90
11559;DHT22;5835;42.930;25.178;2023-04-03T06:20:29;9.60;1.00
11559;DHT22;5835;42.930;25.178;2023-04-03T06:22:57;9.80;99.90
11559;DHT22;5835;42.930;25.178;2023-04-03T06:25:24;10.00;1.00
11559;DHT22;5835;42.930;25.178;2023-04-03T06:27:54;10.30;1.00
11559;DHT22;5835;42.930;25.178;2023-04-03T06:30:22;10.10;99.90
11559;DHT22;5835;42.930;25.178;2023-04-03T06:32:50;10.40;99.90
11559;DHT22;5835;42.930;25.178;2023-04-03T06:35:18;10.50;99.90
11559;DHT22;5835;42.930;25.178;2023-04-03T06:37:46;10.60;99.90
11559;DHT22;5835;42.930;25.178;2023-04-03T06:40:18;10.40;99.90
11559;DHT22;5835;42.930;25.178;2023-04-03T06:42:47;10.30;99.90
11559;DHT22;5835;42.930;25.178;2023-04-03T06:45:16;10.30;99.90
11559;DHT22;5835;42.930;25.178;2023-04-03T06:47:44;10.20;99.90
11559;DHT22;5835;42.930;25.178;2023-04-03T06:50:12;10.30;99.90
11559;DHT22;5835;42.930;25.178;2023-04-03T06:52:41;10.50;99.90
11559;DHT22;5835;42.930;25.178;2023-04-03T06:55:09;10.60;1.00
11559;DHT22;5835;42.930;25.178;2023-04-03T06:57:37;10.70;9.10
11559;DHT22;5835;42.930;25.178;2023-04-03T07:00:06;11.00;2.80
11559;DHT22;5835;42.930;25.178;2023-04-03T07:02:36;11.30;99.90
11559;DHT22;5835;42.930;25.178;2023-04-03T07:05:04;11.50;48.70
11559;DHT22;5835;42.930;25.178;2023-04-03T07:07:32;11.60;99.90
11559;DHT22;5835;42.930;25.178;2023-04-03T07:10:00;11.60;99.90
11559;DHT22;5835;42.930;25.178;2023-04-03T07:12:27;11.90;1.00
11559;DHT22;5835;42.930;25.178;2023-04-03T07:14:55;11.90;1.00
11559;DHT22;5835;42.930;25.178;2023-04-03T07:17:25;11.80;99.90
11559;DHT22;5835;42.930;25.178;2023-04-03T07:19:56;11.60;99.90
11559;DHT22;5835;42.930;25.178;2023-04-03T07:22:24;11.60;99.90
11559;DHT22;5835;42.930;25.178;2023-04-03T07:24:51;11.70;99.90
11559;DHT22;5835;42.930;25.178;2023-04-03T07:27:21;12.00;1.00
11559;DHT22;5835;42.930;25.178;2023-04-03T07:29:51;12.10;99.90
11559;DHT22;5835;42.930;25.178;2023-04-03T07:32:20;12.40;99.90
11559;DHT22;5835;42.930;25.178;2023-04-03T07:34:48;12.70;1.00
11559;DHT22;5835;42.930;25.178;2023-04-03T07:37:17;12.80;1.00
11559;DHT22;5835;42.930;25.178;2023-04-03T07:39:45;12.80;99.90
11559;DHT22;5835;42.930;25.178;2023-04-03T07:42:14;13.10;99.90
11559;DHT22;5835;42.930;25.178;2023-04-03T07:44:42;13.30;99.90
11559;DHT22;5835;42.930;25.178;2023-04-03T07:47:13;13.30;1.00
11559;DHT22;5835;42.930;25.178;2023-04-03T07:49:43;13.40;1.00
11559;DHT22;5835;42.930;25.178;2023-04-03T07:52:11;13.60;1.00
11559;DHT22;5835;42.930;25.178;2023-04-03T07:54:42;13.70;99.90
11559;DHT22;5835;42.930;25.178;2023-04-03T07:57:09;14.10;1.00
11559;DHT22;5835;42.930;25.178;2023-04-03T07:59:39;13.80;99.90
11559;DHT22;5835;42.930;25.178;2023-04-03T08:02:09;13.60;99.90
11559;DHT22;5835;42.930;25.178;2023-04-03T08:04:37;13.80;99.90
11559;DHT22;5835;42.930;25.178;2023-04-03T08:07:05;14.00;99.90
11559;DHT22;5835;42.930;25.178;2023-04-03T08:09:33;14.00;99.90
11559;DHT22;5835;42.930;25.178;2023-04-03T08:12:02;14.20;99.90
11559;DHT22;5835;42.930;25.178;2023-04-03T08:14:32;14.50;99.90
11559;DHT22;5835;42.930;25.178;2023-04-03T08:17:01;14.90;99.90
11559;DHT22;5835;42.930;25.178;2023-04-03T08:19:31;15.00;99.90
11559;DHT22;5835;42.930;25.178;2023-04-03T08:21:59;14.70;99.90
11559;DHT22;5835;42.930;25.178;2023-04-03T08:24:29;14.40;99.90
11559;DHT22;5835;42.930;25.178;2023-04-03T08:26:57;14.40;99.90
11559;DHT22;5835;42.930;25.178;2023-04-03T08:29:26;14.30;99.90
11559;DHT22;5835;42.930;25.178;2023-04-03T08:31:53;14.60;99.90
11559;DHT22;5835;42.930;25.178;2023-04-03T08:34:21;14.40;99.90
11559;DHT22;5835;42.930;25.178;2023-04-03T08:36:48;14.30;99.90
11559;DHT22;5835;42.930;25.178;2023-04-03T08:39:16;14.50;99.90
11559;DHT22;5835;42.930;25.178;2023-04-03T08:41:44;14.40;99.90
11559;DHT22;5835;42.930;25.178;2023-04-03T08:44:19;14.70;99.90
11559;DHT22;5835;42.930;25.178;2023-04-03T08:47:09;14.60;99.90
11559;DHT22;5835;42.930;25.178;2023-04-03T08:49:40;14.80;99.90
11559;DHT22;5835;42.930;25.178;2023-04-03T08:52:15;14.60;99.90
11559;DHT22;5835;42.930;25.178;2023-04-03T08:54:50;14.60;99.90
11559;DHT22;5835;42.930;25.178;2023-04-03T08:57:29;14.70;99.90
11559;DHT22;5835;42.930;25.178;2023-04-03T08:59:59;14.70;99.90
11559;DHT22;5835;42.930;25.178;2023-04-03T09:02:34;15.50;99.90
11559;DHT22;5835;42.930;25.178;2023-04-03T09:05:11;15.30;99.90
11559;DHT22;5835;42.930;25.178;2023-04-03T09:07:43;15.50;99.90
11559;DHT22;5835;42.930;25.178;2023-04-03T09:10:14;15.40;99.90
11559;DHT22;5835;42.930;25.178;2023-04-03T09:12:46;15.50;99.90
11559;DHT22;5835;42.930;25.178;2023-04-03T09:15:19;15.30;99.90
11559;DHT22;5835;42.930;25.178;2023-04-03T09:17:57;15.40;99.90
11559;DHT22;5835;42.930;25.178;2023-04-03T09:20:35;15.40;99.90
11559;DHT22;5835;42.930;25.178;2023-04-03T09:23:20;15.40;99.90
11559;DHT22;5835;42.930;25.178;2023-04-03T09:25:51;15.40;99.90
11559;DHT22;5835;42.930;25.178;2023-04-03T09:28:20;15.70;99.90
11559;DHT22;5835;42.930;25.178;2023-04-03T09:30:47;15.50;98.40
11559;DHT22;5835;42.930;25.178;2023-04-03T09:33:17;15.90;99.90
11559;DHT22;5835;42.930;25.178;2023-04-03T09:35:46;15.80;70.00
11559;DHT22;5835;42.930;25.178;2023-04-03T09:38:19;16.00;37.90
11559;DHT22;5835;42.930;25.178;2023-04-03T09:40:49;15.70;24.70
11559;DHT22;5835;42.930;25.178;2023-04-03T09:43:26;15.90;26.60
11559;DHT22;5835;42.930;25.178;2023-04-03T09:45:55;16.40;21.40
11559;DHT22;5835;42.930;25.178;2023-04-03T09:48:25;15.90;22.90
11559;DHT22;5835;42.930;25.178;2023-04-03T09:51:01;16.10;41.00
11559;DHT22;5835;42.930;25.178;2023-04-03T09:53:36;15.90;63.40
11559;DHT22;5835;42.930;25.178;2023-04-03T09:56:09;16.30;76.20
11559;DHT22;5835;42.930;25.178;2023-04-03T09:58:47;16.30;51.80
11559;DHT22;5835;42.930;25.178;2023-04-03T10:01:25;16.50;23.40
11559;DHT22;5835;42.930;25.178;2023-04-03T10:04:07;16.60;13.10
11559;DHT22;5835;42.930;25.178;2023-04-03T10:06:38;17.10;22.20
11559;DHT22;5835;42.930;25.178;2023-04-03T10:09:17;18.00;22.60
11559;DHT22;5835;42.930;25.178;2023-04-03T10:12:02;17.90;1.00
11559;DHT22;5835;42.930;25.178;2023-04-03T10:14:32;17.30;1.00
11559;DHT22;5835;42.930;25.178;2023-04-03T10:17:11;16.80;1.00
11559;DHT22;5835;42.930;25.178;2023-04-03T10:19:45;16.40;1.00
11559;DHT22;5835;42.930;25.178;2023-04-03T10:22:21;16.50;1.00
11559;DHT22;5835;42.930;25.178;2023-04-03T10:24:58;16.50;1.00
11559;DHT22;5835;42.930;25.178;2023-04-03T10:27:43;16.60;1.00
11559;DHT22;5835;42.930;25.178;2023-04-03T10:30:21;16.80;1.00
11559;DHT22;5835;42.930;25.178;2023-04-03T10:33:01;16.70;1.00
11559;DHT22;5835;42.930;25.178;2023-04-03T10:35:43;16.70;1.00
11559;DHT22;5835;42.930;25.178;2023-04-03T10:38:18;17.10;1.00
11559;DHT22;5835;42.930;25.178;2023-04-03T10:40:52;17.40;1.00
11559;DHT22;5835;42.930;25.178;2023-04-03T10:43:32;17.20;1.00
11559;DHT22;5835;42.930;25.178;2023-04-03T10:46:04;18.10;1.00
11559;DHT22;5835;42.930;25.178;2023-04-03T10:48:43;17.90;1.00
11559;DHT22;5835;42.930;25.178;2023-04-03T10:51:23;17.70;1.00
11559;DHT22;5835;42.930;25.178;2023-04-03T10:53:55;17.50;1.00
11559;DHT22;5835;42.930;25.178;2023-04-03T10:56:30;17.40;1.00
11559;DHT22;5835;42.930;25.178;2023-04-03T10:59:07;17.90;1.00
11559;DHT22;5835;42.930;25.178;2023-04-03T11:01:41;18.20;1.00
11559;DHT22;5835;42.930;25.178;2023-04-03T11:04:10;18.20;1.00
11559;DHT22;5835;42.930;25.178;2023-04-03T11:06:44;17.00;1.00
11559;DHT22;5835;42.930;25.178;2023-04-03T11:09:19;17.10;1.00
11559;DHT22;5835;42.930;25.178;2023-04-03T11:11:53;17.30;1.00
11559;DHT22;5835;42.930;25.178;2023-04-03T11:14:27;17.30;1.00
11559;DHT22;5835;42.930;25.178;2023-04-03T11:17:04;16.90;1.00
11559;DHT22;5835;42.930;25.178;2023-04-03T11:19:36;17.20;1.00
11559;DHT22;5835;42.930;25.178;2023-04-03T11:22:16;17.40;1.00
11559;DHT22;5835;42.930;25.178;2023-04-03T11:24:55;17.20;1.00
11559;DHT22;5835;42.930;25.178;2023-04-03T11:27:25;17.40;1.00
11559;DHT22;5835;42.930;25.178;2023-04-03T11:29:57;17.30;1.00
11559;DHT22;5835;42.930;25.178;2023-04-03T11:32:53;17.40;1.00
11559;DHT22;5835;42.930;25.178;2023-04-03T11:35:25;17.40;1.00
11559;DHT22;5835;42.930;25.178;2023-04-03T11:37:55;17.80;5.80
11559;DHT22;5835;42.930;25.178;2023-04-03T11:40:28;17.90;80.20
11559;DHT22;5835;42.930;25.178;2023-04-03T11:43:05;17.80;50.20
11559;DHT22;5835;42.930;25.178;2023-04-03T11:45:38;17.60;99.90
11559;DHT22;5835;42.930;25.178;2023-04-03T11:48:45;16.80;99.90
11559;DHT22;5835;42.930;25.178;2023-04-03T11:51:40;16.80;99.90
11559;DHT22;5835;42.930;25.178;2023-04-03T11:54:47;16.70;99.90
11559;DHT22;5835;42.930;25.178;2023-04-03T11:57:43;16.80;99.90
11559;DHT22;5835;42.930;25.178;2023-04-03T12:09:32;17.20;99.90
11559;DHT22;5835;42.930;25.178;2023-04-03T12:12:24;17.30;99.90
11559;DHT22;5835;42.930;25.178;2023-04-03T12:14:55;17.20;99.90
11559;DHT22;5835;42.930;25.178;2023-04-03T12:17:38;17.00;99.90
11559;DHT22;5835;42.930;25.178;2023-04-03T12:23:08;16.30;1.00
11559;DHT22;5835;42.930;25.178;2023-04-03T12:25:51;16.00;99.90
11559;DHT22;5835;42.930;25.178;2023-04-03T12:28:20;15.60;99.90
11559;DHT22;5835;42.930;25.178;2023-04-03T12:30:47;15.20;1.00
11559;DHT22;5835;42.930;25.178;2023-04-03T12:33:27;14.50;99.90
11559;DHT22;5835;42.930;25.178;2023-04-03T12:36:05;14.20;99.90
11559;DHT22;5835;42.930;25.178;2023-04-03T12:39:01;14.20;1.00
11559;DHT22;5835;42.930;25.178;2023-04-03T12:41:38;14.00;1.00
11559;DHT22;5835;42.930;25.178;2023-04-03T12:44:30;14.00;1.00
11559;DHT22;5835;42.930;25.178;2023-04-03T12:47:23;13.80;1.00
11559;DHT22;5835;42.930;25.178;2023-04-03T12:49:53;13.90;1.00
11559;DHT22;5835;42.930;25.178;2023-04-03T12:52:33;14.00;1.00
11559;DHT22;5835;42.930;25.178;2023-04-03T12:55:02;13.80;1.00
11559;DHT22;5835;42.930;25.178;2023-04-03T12:57:34;13.90;1.00
11559;DHT22;5835;42.930;25.178;2023-04-03T13:00:25;14.00;1.00
11559;DHT22;5835;42.930;25.178;2023-04-03T13:02:58;14.10;1.00
11559;DHT22;5835;42.930;25.178;2023-04-03T13:05:26;14.00;11.30
11559;DHT22;5835;42.930;25.178;2023-04-03T13:07:58;14.10;1.00
11559;DHT22;5835;42.930;25.178;2023-04-03T13:10:27;14.10;1.00
11559;DHT22;5835;42.930;25.178;2023-04-03T13:12:56;14.00;1.00
11559;DHT22;5835;42.930;25.178;2023-04-03T13:15:28;14.00;11.60
11559;DHT22;5835;42.930;25.178;2023-04-03T13:17:56;13.90;4.00
11559;DHT22;5835;42.930;25.178;2023-04-03T13:20:26;13.70;1.00
11559;DHT22;5835;42.930;25.178;2023-04-03T13:22:57;13.50;3.10
11559;DHT22;5835;42.930;25.178;2023-04-03T13:25:29;13.60;13.10
11559;DHT22;5835;42.930;25.178;2023-04-03T13:27:58;13.60;19.80
11559;DHT22;5835;42.930;25.178;2023-04-03T13:30:30;13.70;1.00
11559;DHT22;5835;42.930;25.178;2023-04-03T13:33:00;13.80;11.20
11559;DHT22;5835;42.930;25.178;2023-04-03T13:35:32;13.80;1.00
11559;DHT22;5835;42.930;25.178;2023-04-03T13:38:02;13.70;3.70
11559;DHT22;5835;42.930;25.178;2023-04-03T13:40:30;13.70;33.50
11559;DHT22;5835;42.930;25.178;2023-04-03T13:43:03;13.70;44.80
11559;DHT22;5835;42.930;25.178;2023-04-03T13:45:32;13.70;13.70
11559;DHT22;5835;42.930;25.178;2023-04-03T13:48:17;13.70;4.00
11559;DHT22;5835;42.930;25.178;2023-04-03T13:50:59;13.70;16.80
11559;DHT22;5835;42.930;25.178;2023-04-03T13:53:28;13.60;48.10
11559;DHT22;5835;42.930;25.178;2023-04-03T13:56:00;13.70;37.80
11559;DHT22;5835;42.930;25.178;2023-04-03T13:58:34;13.60;22.10
11559;DHT22;5835;42.930;25.178;2023-04-03T14:01:10;13.50;48.50
11559;DHT22;5835;42.930;25.178;2023-04-03T14:03:43;13.50;32.80
11559;DHT22;5835;42.930;25.178;2023-04-03T14:06:13;13.40;54.60
11559;DHT22;5835;42.930;25.178;2023-04-03T14:08:41;13.20;43.70
11559;DHT22;5835;42.930;25.178;2023-04-03T14:11:15;13.10;78.90
11559;DHT22;5835;42.930;25.178;2023-04-03T14:13:43;13.00;97.80
11559;DHT22;5835;42.930;25.178;2023-04-03T14:16:18;13.00;99.70
11559;DHT22;5835;42.930;25.178;2023-04-03T14:18:48;12.90;96.70
11559;DHT22;5835;42.930;25.178;2023-04-03T14:21:18;13.00;81.90
11559;DHT22;5835;42.930;25.178;2023-04-03T14:23:47;12.80;79.40
11559;DHT22;5835;42.930;25.178;2023-04-03T14:26:17;12.70;91.20
11559;DHT22;5835;42.930;25.178;2023-04-03T14:28:46;12.60;92.70
11559;DHT22;5835;42.930;25.178;2023-04-03T14:31:17;12.50;98.80
11559;DHT22;5835;42.930;25.178;2023-04-03T14:33:45;12.50;99.90
11559;DHT22;5835;42.930;25.178;2023-04-03T14:36:15;12.50;99.90
11559;DHT22;5835;42.930;25.178;2023-04-03T14:38:44;12.40;99.90
11559;DHT22;5835;42.930;25.178;2023-04-03T14:41:16;12.40;99.90
11559;DHT22;5835;42.930;25.178;2023-04-03T14:43:46;12.50;99.90
11559;DHT22;5835;42.930;25.178;2023-04-03T14:46:18;12.40;99.90
11559;DHT22;5835;42.930;25.178;2023-04-03T14:48:46;12.30;99.90
11559;DHT22;5835;42.930;25.178;2023-04-03T14:51:18;12.20;99.90
11559;DHT22;5835;42.930;25.178;2023-04-03T14:53:46;12.10;99.90
11559;DHT22;5835;42.930;25.178;2023-04-03T14:56:17;12.10;99.90
11559;DHT22;5835;42.930;25.178;2023-04-03T14:58:55;12.10;99.90
11559;DHT22;5835;42.930;25.178;2023-04-03T15:01:25;12.10;99.90
11559;DHT22;5835;42.930;25.178;2023-04-03T15:03:53;12.10;99.90
11559;DHT22;5835;42.930;25.178;2023-04-03T15:06:21;11.90;99.90
11559;DHT22;5835;42.930;25.178;2023-04-03T15:08:48;11.90;99.90
11559;DHT22;5835;42.930;25.178;2023-04-03T15:11:16;11.90;99.90
11559;DHT22;5835;42.930;25.178;2023-04-03T15:13:43;11.80;99.90
11559;DHT22;5835;42.930;25.178;2023-04-03T15:16:15;11.80;99.90
11559;DHT22;5835;42.930;25.178;2023-04-03T15:18:45;11.80;99.90
11559;DHT22;5835;42.930;25.178;2023-04-03T15:21:14;11.80;99.90
11559;DHT22;5835;42.930;25.178;2023-04-03T15:23:41;11.70;99.90
11559;DHT22;5835;42.930;25.178;2023-04-03T15:26:12;11.70;99.90
11559;DHT22;5835;42.930;25.178;2023-04-03T15:28:41;11.70;99.90
11559;DHT22;5835;42.930;25.178;2023-04-03T15:31:12;11.70;99.90
11559;DHT22;5835;42.930;25.178;2023-04-03T15:33:40;11.70;99.90
11559;DHT22;5835;42.930;25.178;2023-04-03T15:36:09;11.70;99.90
11559;DHT22;5835;42.930;25.178;2023-04-03T15:38:38;11.60;99.90
11559;DHT22;5835;42.930;25.178;2023-04-03T15:41:06;11.60;99.90
11559;DHT22;5835;42.930;25.178;2023-04-03T15:43:34;11.60;99.90
11559;DHT22;5835;42.930;25.178;2023-04-03T15:46:01;11.60;99.90
11559;DHT22;5835;42.930;25.178;2023-04-03T15:48:29;11.50;99.90
11559;DHT22;5835;42.930;25.178;2023-04-03T15:50:59;11.50;99.90
11559;DHT22;5835;42.930;25.178;2023-04-03T15:53:29;11.60;99.90
11559;DHT22;5835;42.930;25.178;2023-04-03T15:55:56;11.50;99.90
11559;DHT22;5835;42.930;25.178;2023-04-03T15:58:24;11.50;99.90
11559;DHT22;5835;42.930;25.178;2023-04-03T16:00:51;11.60;99.90
11559;DHT22;5835;42.930;25.178;2023-04-03T16:03:46;11.60;99.90
11559;DHT22;5835;42.930;25.178;2023-04-03T16:06:15;11.60;99.90
11559;DHT22;5835;42.930;25.178;2023-04-03T16:08:43;11.70;99.90
11559;DHT22;5835;42.930;25.178;2023-04-03T16:11:10;11.60;99.90
11559;DHT22;5835;42.930;25.178;2023-04-03T16:13:38;11.60;99.90
11559;DHT22;5835;42.930;25.178;2023-04-03T16:16:06;11.50;99.90
11559;DHT22;5835;42.930;25.178;2023-04-03T16:18:38;11.60;99.90
11559;DHT22;5835;42.930;25.178;2023-04-03T16:21:08;11.50;99.90